Decoded Metar for GMMX (MARRAKECH in MOROCCO) (IATA:RAK) | Meteo·Mobile Aviation Weather
aviador You're here:

GMMX Decoded Metar

MARRAKECH in MOROCCO
Report Time2018-08-21 10:30:00
UTC Time2018-08-21 10:37:32
Flight Rules vfr VFR
Wind290° at 03 kt
W.Decomp.*RWY 28: 2.9 kt HW 0.7 kt RCW
W.Rank290° ranks 15
Current wind is below 290° avg. (6.7)
Visibility9999 m
Phenomena:N/A
Clouds:N/A
Expected CloudBase > 4,800 ft AGL from Temp-Dew spread
CeilingNone
Temp29°C (ISA +17)
Dew Point17°C (48% RH)
Heat Index29.4°C
QNH1015 hPa
Density Alt3,675 ft
Elevation1,529 ft
Report Wrong Elevation
Raw Report
METAR GMMX 211030Z 29003KT 200V360 CAVOK 29/17 Q1015 NOSIG=

Extra information for GMMX:More info

Metar Taf Metar & Taf Last 4 Metars F.Rules Stats Wind Profile Meteogram Temp Stats Airport Information Weather charts Add Link Nearby VenuesMetar ALERT Operation Metar Decoded Social comments